Time;durP1;ratioP1;P1;durP2;ratioP2;P2;SDS_P1;SDS_P2;PMS_P1;PMS_P2;Temp;Humidity;BMP_temperature;BMP_pressure;BME280_temperature;BME280_humidity;BME280_pressure;Samples;Min_cycle;Max_cycle;Signal;HPM_P1;HPM_P2
2022/08/22 00:01:18;;;;;;;;;;;17.80;99.90;;;;;;5028816;28;19995;-70
2022/08/22 00:03:47;;;;;;;;;;;17.70;99.90;;;;;;5028632;28;19987;-70
2022/08/22 00:06:12;;;;;;;;;;;17.70;99.90;;;;;;5029365;28;20367;-71
2022/08/22 00:08:48;;;;;;;;;;;17.70;99.90;;;;;;5029330;28;19925;-69
2022/08/22 00:11:13;;;;;;;;;;;17.70;99.90;;;;;;5029508;28;20003;-70
2022/08/22 00:13:39;;;;;;;;;;;17.60;99.90;;;;;;5029280;28;20013;-71
2022/08/22 00:16:11;;;;;;;;;;;17.60;99.90;;;;;;5029770;28;20379;-70
2022/08/22 00:18:43;;;;;;;;;;;17.60;99.90;;;;;;5029367;28;19921;-70
2022/08/22 00:21:08;;;;;;;;;;;17.60;99.90;;;;;;5029233;28;19947;-72
2022/08/22 00:23:37;;;;;;;;;;;17.60;99.90;;;;;;5029109;28;19921;-72
2022/08/22 00:26:07;;;;;;;;;;;17.60;99.90;;;;;;5029533;28;19921;-71
2022/08/22 00:28:36;;;;;;;;;;;17.60;99.90;;;;;;5029056;28;19921;-71
2022/08/22 00:31:17;;;;;;;;;;;17.60;99.90;;;;;;5029413;28;19975;-71
2022/08/22 00:33:57;;;;;;;;;;;17.50;99.90;;;;;;5029396;28;19921;-72
2022/08/22 00:36:26;;;;;;;;;;;17.60;99.90;;;;;;5029526;28;19967;-72
2022/08/22 00:39:17;;;;;;;;;;;17.50;99.90;;;;;;5029040;28;19928;-72
2022/08/22 00:41:48;;;;;;;;;;;17.50;99.90;;;;;;5014670;28;19921;-72
2022/08/22 00:44:13;;;;;;;;;;;17.50;99.90;;;;;;5029185;28;20350;-72
2022/08/22 00:46:39;;;;;;;;;;;17.50;99.90;;;;;;5029404;28;19921;-71
2022/08/22 00:49:23;;;;;;;;;;;17.50;99.90;;;;;;5029154;28;19921;-72
2022/08/22 00:52:03;;;;;;;;;;;17.50;99.90;;;;;;5019078;28;19931;-71
2022/08/22 00:54:40;;;;;;;;;;;17.50;99.90;;;;;;5029323;28;19971;-71
2022/08/22 00:57:17;;;;;;;;;;;17.40;99.90;;;;;;5028518;28;20396;-71
2022/08/22 00:59:59;;;;;;;;;;;17.40;99.90;;;;;;5017110;28;19921;-71
2022/08/22 01:02:31;;;;;;;;;;;17.40;99.90;;;;;;5027805;28;19944;-71
2022/08/22 01:05:09;;;;;;;;;;;17.40;99.90;;;;;;5027199;28;19925;-71
2022/08/22 01:07:47;;;;;;;;;;;17.40;99.90;;;;;;5028969;28;19921;-71
2022/08/22 01:10:28;;;;;;;;;;;17.40;99.90;;;;;;5029007;28;19928;-71
2022/08/22 01:13:12;;;;;;;;;;;17.40;99.90;;;;;;5019353;28;19921;-71
2022/08/22 01:15:39;;;;;;;;;;;17.40;99.90;;;;;;5029171;28;20003;-71
2022/08/22 01:18:04;;;;;;;;;;;17.40;99.90;;;;;;5029054;28;19939;-72
2022/08/22 01:20:54;;;;;;;;;;;17.40;99.90;;;;;;5028717;28;20283;-72
2022/08/22 01:23:19;;;;;;;;;;;17.40;99.90;;;;;;5032505;28;19945;-71
2022/08/22 01:25:48;;;;;;;;;;;17.40;99.90;;;;;;5032378;28;19921;-72
2022/08/22 01:28:32;;;;;;;;;;;17.40;99.90;;;;;;5032627;28;19921;-72
2022/08/22 01:31:29;;;;;;;;;;;17.40;99.90;;;;;;5031562;28;19921;-72
2022/08/22 01:33:57;;;;;;;;;;;17.40;99.90;;;;;;5022085;28;19971;-71
2022/08/22 01:36:25;;;;;;;;;;;17.40;99.90;;;;;;5032386;28;19921;-71
2022/08/22 01:38:56;;;;;;;;;;;17.30;99.90;;;;;;5032270;28;19921;-71
2022/08/22 01:41:25;;;;;;;;;;;17.30;99.90;;;;;;5032194;28;20398;-71
2022/08/22 01:43:50;;;;;;;;;;;17.30;99.90;;;;;;5032107;28;19927;-72
2022/08/22 01:46:30;;;;;;;;;;;17.40;99.90;;;;;;5032417;28;19999;-71
2022/08/22 01:49:04;;;;;;;;;;;17.40;99.90;;;;;;5032088;28;19928;-71
2022/08/22 01:51:52;;;;;;;;;;;17.30;99.90;;;;;;5032231;28;19925;-71
2022/08/22 01:54:25;;;;;;;;;;;17.40;99.90;;;;;;5032099;28;19925;-71
2022/08/22 01:56:57;;;;;;;;;;;17.30;99.90;;;;;;5032038;28;19921;-71
2022/08/22 01:59:29;;;;;;;;;;;17.30;99.90;;;;;;5031756;28;19921;-71
2022/08/22 02:02:03;;;;;;;;;;;17.20;99.90;;;;;;5032201;28;19925;-71
2022/08/22 02:04:37;;;;;;;;;;;17.20;99.90;;;;;;5019715;28;19968;-71
2022/08/22 02:07:21;;;;;;;;;;;17.20;99.90;;;;;;5025382;28;19921;-71
2022/08/22 02:09:53;;;;;;;;;;;17.10;99.90;;;;;;5028003;28;20414;-71
2022/08/22 02:12:27;;;;;;;;;;;17.20;99.90;;;;;;5031243;28;20383;-71
2022/08/22 02:15:04;;;;;;;;;;;17.10;99.90;;;;;;5031254;28;20058;-71
2022/08/22 02:17:44;;;;;;;;;;;17.20;99.90;;;;;;5031077;28;20018;-71
2022/08/22 02:20:17;;;;;;;;;;;17.10;99.90;;;;;;5030602;28;19925;-71
2022/08/22 02:22:52;;;;;;;;;;;17.10;99.90;;;;;;5030907;28;19927;-70
2022/08/22 02:25:22;;;;;;;;;;;17.10;99.90;;;;;;5031077;28;19967;-71
2022/08/22 02:27:51;;;;;;;;;;;17.10;99.90;;;;;;5030866;28;19932;-70
2022/08/22 02:30:19;;;;;;;;;;;17.10;99.90;;;;;;5030275;28;20012;-71
2022/08/22 02:32:44;;;;;;;;;;;17.10;99.90;;;;;;5030293;28;19982;-71
2022/08/22 02:35:19;;;;;;;;;;;17.10;99.90;;;;;;5030684;28;19924;-71
2022/08/22 02:37:53;;;;;;;;;;;17.10;99.90;;;;;;5030623;28;19925;-71
2022/08/22 02:40:21;;;;;;;;;;;17.10;99.90;;;;;;5030391;28;19920;-71
2022/08/22 02:42:56;;;;;;;;;;;17.00;99.90;;;;;;5029878;28;19936;-71
2022/08/22 02:45:27;;;;;;;;;;;17.00;99.90;;;;;;5030915;28;20365;-70
2022/08/22 02:48:02;;;;;;;;;;;17.00;99.90;;;;;;5030278;28;19925;-71
2022/08/22 02:50:46;;;;;;;;;;;17.00;99.90;;;;;;5030295;28;19935;-71
2022/08/22 02:53:30;;;;;;;;;;;16.90;99.90;;;;;;5019015;28;19925;-71
2022/08/22 02:56:00;;;;;;;;;;;17.00;99.90;;;;;;5030120;28;19927;-71
2022/08/22 02:58:32;;;;;;;;;;;16.90;99.90;;;;;;5030770;28;20128;-71
2022/08/22 03:00:57;;;;;;;;;;;16.90;99.90;;;;;;5030198;28;19921;-70
2022/08/22 03:03:30;;;;;;;;;;;16.90;99.90;;;;;;5029773;28;19921;-71
2022/08/22 03:06:14;;;;;;;;;;;16.90;99.90;;;;;;5028261;28;19978;-71
2022/08/22 03:08:59;;;;;;;;;;;16.90;99.90;;;;;;5030465;28;20598;-70
2022/08/22 03:11:30;;;;;;;;;;;16.90;99.90;;;;;;5030113;28;19924;-71
2022/08/22 03:14:04;;;;;;;;;;;16.80;99.90;;;;;;5029040;28;20256;-71
2022/08/22 03:16:30;;;;;;;;;;;16.80;99.90;;;;;;5030068;28;20418;-70
2022/08/22 03:19:05;;;;;;;;;;;16.80;99.90;;;;;;5029734;28;19929;-71
2022/08/22 03:21:35;;;;;;;;;;;16.80;99.90;;;;;;5029902;28;20311;-71
2022/08/22 03:24:11;;;;;;;;;;;16.80;99.90;;;;;;5029563;28;19921;-70
2022/08/22 03:26:51;;;;;;;;;;;16.70;99.90;;;;;;5029168;28;19928;-70
2022/08/22 03:29:34;;;;;;;;;;;16.70;99.90;;;;;;5029827;28;20437;-71
2022/08/22 03:32:02;;;;;;;;;;;16.70;99.90;;;;;;5017354;28;19920;-70
2022/08/22 03:34:28;;;;;;;;;;;16.70;99.90;;;;;;5029671;28;20354;-71
2022/08/22 03:36:57;;;;;;;;;;;16.70;99.90;;;;;;5029222;28;19951;-72
2022/08/22 03:39:36;;;;;;;;;;;16.70;99.90;;;;;;5029537;28;19932;-70
2022/08/22 03:42:21;;;;;;;;;;;16.70;99.90;;;;;;5029743;28;19927;-70
2022/08/22 03:44:57;;;;;;;;;;;16.70;99.90;;;;;;5028795;28;19921;-71
2022/08/22 03:47:35;;;;;;;;;;;16.60;99.90;;;;;;5029768;28;20341;-70
2022/08/22 03:50:21;;;;;;;;;;;16.60;99.90;;;;;;5017823;28;19925;-70
2022/08/22 03:53:14;;;;;;;;;;;16.60;99.90;;;;;;5029282;28;19925;-71
2022/08/22 03:55:58;;;;;;;;;;;16.50;99.90;;;;;;5029166;28;19921;-71
2022/08/22 03:58:41;;;;;;;;;;;16.50;99.90;;;;;;5029124;28;20012;-71
2022/08/22 04:01:10;;;;;;;;;;;16.50;99.90;;;;;;5029430;28;19996;-70
2022/08/22 04:03:35;;;;;;;;;;;16.50;99.90;;;;;;5029287;28;19978;-70
2022/08/22 04:06:16;;;;;;;;;;;16.50;99.90;;;;;;5029257;28;20338;-71
2022/08/22 04:08:45;;;;;;;;;;;16.40;99.90;;;;;;5029077;28;19925;-70
2022/08/22 04:11:10;;;;;;;;;;;16.50;99.90;;;;;;5027832;28;19954;-71
2022/08/22 04:13:38;;;;;;;;;;;16.40;99.90;;;;;;5028966;28;19928;-71
2022/08/22 04:16:22;;;;;;;;;;;16.50;99.90;;;;;;5027673;28;19968;-71
2022/08/22 04:19:06;;;;;;;;;;;16.40;99.90;;;;;;5029269;28;19925;-70
2022/08/22 04:21:41;;;;;;;;;;;16.40;99.90;;;;;;5028549;28;20392;-70
2022/08/22 04:24:29;;;;;;;;;;;16.30;99.90;;;;;;5029581;28;20284;-71
2022/08/22 04:26:58;;;;;;;;;;;16.40;99.90;;;;;;5028510;28;19926;-71
2022/08/22 04:29:27;;;;;;;;;;;16.30;99.90;;;;;;5029166;28;19927;-71
2022/08/22 04:31:55;;;;;;;;;;;16.30;99.90;;;;;;5028886;28;19925;-71
2022/08/22 04:34:27;;;;;;;;;;;16.30;99.90;;;;;;5028874;28;19921;-70
2022/08/22 04:37:05;;;;;;;;;;;16.30;99.90;;;;;;5015525;28;19921;-71
2022/08/22 04:39:30;;;;;;;;;;;16.20;99.90;;;;;;5028732;28;19921;-71
2022/08/22 04:42:01;;;;;;;;;;;16.20;99.90;;;;;;5028678;28;20401;-70
2022/08/22 04:44:41;;;;;;;;;;;16.20;99.90;;;;;;5028687;28;20364;-70
2022/08/22 04:47:12;;;;;;;;;;;16.20;99.90;;;;;;5028589;28;20383;-70
2022/08/22 04:49:45;;;;;;;;;;;16.20;99.90;;;;;;5028598;28;19932;-72
2022/08/22 04:52:17;;;;;;;;;;;16.20;99.90;;;;;;5029013;28;20387;-70
2022/08/22 04:54:52;;;;;;;;;;;16.20;99.90;;;;;;5028148;28;19921;-70
2022/08/22 04:57:20;;;;;;;;;;;16.20;99.90;;;;;;5031204;28;20311;-70
2022/08/22 04:59:46;;;;;;;;;;;16.20;99.90;;;;;;5032540;28;20296;-70
2022/08/22 05:02:18;;;;;;;;;;;16.20;99.90;;;;;;5032336;28;19921;-70
2022/08/22 05:04:45;;;;;;;;;;;16.20;99.90;;;;;;5032063;28;20396;-71
2022/08/22 05:07:14;;;;;;;;;;;16.20;99.90;;;;;;5032333;28;19928;-71
2022/08/22 05:09:43;;;;;;;;;;;16.20;99.90;;;;;;5032771;28;19925;-71
2022/08/22 05:12:13;;;;;;;;;;;16.20;99.90;;;;;;5032276;28;19920;-70
2022/08/22 05:14:41;;;;;;;;;;;16.20;99.90;;;;;;5032351;28;20447;-70
2022/08/22 05:17:08;;;;;;;;;;;16.20;99.90;;;;;;5031316;28;19921;-71
2022/08/22 05:19:37;;;;;;;;;;;16.20;99.90;;;;;;5032281;28;19924;-70
2022/08/22 05:22:02;;;;;;;;;;;16.20;99.90;;;;;;5031924;28;19921;-71
2022/08/22 05:25:03;;;;;;;;;;;16.30;99.90;;;;;;5032319;28;19925;-71
2022/08/22 05:27:34;;;;;;;;;;;16.30;99.90;;;;;;5009471;28;19991;-70
2022/08/22 05:30:03;;;;;;;;;;;16.30;99.90;;;;;;5015082;28;19921;-71
2022/08/22 05:32:31;;;;;;;;;;;16.40;99.90;;;;;;5032140;28;21014;-71
2022/08/22 05:34:58;;;;;;;;;;;16.40;99.90;;;;;;5031341;28;19943;-72
2022/08/22 05:37:38;;;;;;;;;;;16.40;99.90;;;;;;5031923;28;19921;-71
2022/08/22 05:40:04;;;;;;;;;;;16.50;99.90;;;;;;5031629;28;19921;-71
2022/08/22 05:42:31;;;;;;;;;;;16.50;99.90;;;;;;5031873;28;19921;-71
2022/08/22 05:45:00;;;;;;;;;;;16.50;99.90;;;;;;5031190;28;20299;-70
2022/08/22 05:47:33;;;;;;;;;;;16.50;99.90;;;;;;5031315;28;19921;-71
2022/08/22 05:50:12;;;;;;;;;;;16.60;99.90;;;;;;5031585;28;19928;-71
2022/08/22 05:52:58;;;;;;;;;;;16.70;99.90;;;;;;5031398;28;20924;-70
2022/08/22 05:55:24;;;;;;;;;;;16.80;99.90;;;;;;5030917;28;20454;-71
2022/08/22 05:57:54;;;;;;;;;;;16.80;99.90;;;;;;5031586;28;19972;-71
2022/08/22 06:00:21;;;;;;;;;;;16.80;99.90;;;;;;5031677;28;20295;-71
2022/08/22 06:03:05;;;;;;;;;;;16.90;99.90;;;;;;5031059;28;19925;-71
2022/08/22 06:05:32;;;;;;;;;;;17.00;99.90;;;;;;5031252;28;19925;-71
2022/08/22 06:08:10;;;;;;;;;;;17.10;99.90;;;;;;5030972;28;20444;-71
2022/08/22 06:10:42;;;;;;;;;;;17.20;99.90;;;;;;5030562;28;20483;-70
2022/08/22 06:13:10;;;;;;;;;;;17.30;99.90;;;;;;5031489;28;19921;-71
2022/08/22 06:15:36;;;;;;;;;;;17.40;99.90;;;;;;5031168;28;19921;-71
2022/08/22 06:18:04;;;;;;;;;;;17.60;99.90;;;;;;5030741;28;19948;-70
2022/08/22 06:20:38;;;;;;;;;;;17.70;99.90;;;;;;5031048;28;19925;-71
2022/08/22 06:23:04;;;;;;;;;;;17.80;99.90;;;;;;5030855;28;19921;-71
2022/08/22 06:25:36;;;;;;;;;;;17.90;99.90;;;;;;5031302;28;20333;-71
2022/08/22 06:28:06;;;;;;;;;;;18.00;99.90;;;;;;5030960;28;19968;-71
2022/08/22 06:30:33;;;;;;;;;;;18.10;99.90;;;;;;5031023;28;20019;-71
2022/08/22 06:33:01;;;;;;;;;;;18.20;99.90;;;;;;5029913;28;20338;-71
2022/08/22 06:35:28;;;;;;;;;;;18.30;99.90;;;;;;5031102;28;20322;-71
2022/08/22 06:37:57;;;;;;;;;;;18.40;99.90;;;;;;5030681;28;19932;-71
2022/08/22 06:40:23;;;;;;;;;;;18.50;99.90;;;;;;5030709;28;19921;-71
2022/08/22 06:42:50;;;;;;;;;;;18.50;99.90;;;;;;5030421;28;19929;-71
2022/08/22 06:45:18;;;;;;;;;;;18.60;99.90;;;;;;5030615;28;20284;-71
2022/08/22 06:47:45;;;;;;;;;;;18.60;99.90;;;;;;5030479;28;19976;-71
2022/08/22 06:50:13;;;;;;;;;;;18.70;99.90;;;;;;5028984;28;20383;-71
2022/08/22 06:52:59;;;;;;;;;;;18.80;99.90;;;;;;5030361;28;20493;-71
2022/08/22 06:55:26;;;;;;;;;;;18.80;99.90;;;;;;5029576;28;19921;-71
2022/08/22 06:57:57;;;;;;;;;;;18.90;99.90;;;;;;5017066;28;19921;-71
2022/08/22 07:00:23;;;;;;;;;;;18.90;99.90;;;;;;5030304;28;19921;-71
2022/08/22 07:02:54;;;;;;;;;;;19.00;99.90;;;;;;5030403;28;19920;-71
2022/08/22 07:05:21;;;;;;;;;;;19.10;99.90;;;;;;5030314;28;20592;-71
2022/08/22 07:07:48;;;;;;;;;;;19.10;99.90;;;;;;5029883;28;19921;-71
2022/08/22 07:10:14;;;;;;;;;;;19.20;99.90;;;;;;5030147;28;19921;-71
2022/08/22 07:12:43;;;;;;;;;;;19.20;99.90;;;;;;5028351;28;19968;-70
2022/08/22 07:15:16;;;;;;;;;;;19.30;99.90;;;;;;5029453;28;19921;-71
2022/08/22 07:17:56;;;;;;;;;;;19.30;99.90;;;;;;5030093;28;19921;-71
2022/08/22 07:20:30;;;;;;;;;;;19.30;99.90;;;;;;5028791;28;19983;-71
2022/08/22 07:23:07;;;;;;;;;;;19.40;99.90;;;;;;5029877;28;19928;-70
2022/08/22 07:25:38;;;;;;;;;;;19.30;99.90;;;;;;5017141;28;19924;-71
2022/08/22 07:28:22;;;;;;;;;;;19.40;99.90;;;;;;5029839;28;19972;-71
2022/08/22 07:30:58;;;;;;;;;;;19.50;99.90;;;;;;5029973;28;20306;-71
2022/08/22 07:33:32;;;;;;;;;;;19.50;99.90;;;;;;5029758;28;19925;-71
2022/08/22 07:36:00;;;;;;;;;;;19.60;99.90;;;;;;5029561;28;19933;-71
2022/08/22 07:38:25;;;;;;;;;;;19.60;99.90;;;;;;5029826;28;19932;-71
2022/08/22 07:40:52;;;;;;;;;;;19.70;99.90;;;;;;5030035;28;19921;-71
2022/08/22 07:43:18;;;;;;;;;;;19.80;99.90;;;;;;5029309;28;19972;-72
2022/08/22 07:45:49;;;;;;;;;;;19.80;99.90;;;;;;5029148;28;19995;-71
2022/08/22 07:48:15;;;;;;;;;;;19.90;99.90;;;;;;5029223;28;19920;-72
2022/08/22 07:50:46;;;;;;;;;;;19.90;99.90;;;;;;5029133;28;20310;-71
2022/08/22 07:53:18;;;;;;;;;;;20.00;99.90;;;;;;5017072;28;19921;-71
2022/08/22 07:55:44;;;;;;;;;;;20.00;99.90;;;;;;5028884;28;19956;-71
2022/08/22 07:58:12;;;;;;;;;;;20.00;99.90;;;;;;5029247;28;19963;-71
2022/08/22 08:00:43;;;;;;;;;;;20.00;99.90;;;;;;5029434;28;19927;-71
2022/08/22 08:03:09;;;;;;;;;;;20.00;99.90;;;;;;5029264;28;20330;-71
2022/08/22 08:05:35;;;;;;;;;;;20.00;99.90;;;;;;5029029;28;19982;-70
2022/08/22 08:08:07;;;;;;;;;;;20.10;99.90;;;;;;5027481;28;19920;-71
2022/08/22 08:10:35;;;;;;;;;;;20.10;99.90;;;;;;5029505;28;19925;-71
2022/08/22 08:13:03;;;;;;;;;;;20.10;99.90;;;;;;5029134;28;19964;-72
2022/08/22 08:15:30;;;;;;;;;;;20.10;99.90;;;;;;5028817;28;19976;-71
2022/08/22 08:18:05;;;;;;;;;;;20.10;99.90;;;;;;5028516;28;19928;-71
2022/08/22 08:20:32;;;;;;;;;;;20.10;99.90;;;;;;5028742;28;19944;-72
2022/08/22 08:22:58;;;;;;;;;;;20.20;99.90;;;;;;5029245;28;20399;-72
2022/08/22 08:25:25;;;;;;;;;;;20.30;99.90;;;;;;5028951;28;19921;-71
2022/08/22 08:30:39;;;;;;;;;;;20.40;99.90;;;;;;5029140;28;20299;-71
2022/08/22 08:33:05;;;;;;;;;;;20.40;99.90;;;;;;5032983;28;19932;-70
2022/08/22 08:35:34;;;;;;;;;;;20.50;99.90;;;;;;5033165;28;19933;-71
2022/08/22 08:38:00;;;;;;;;;;;20.60;99.90;;;;;;5032915;28;19935;-71
2022/08/22 08:40:31;;;;;;;;;;;20.60;99.90;;;;;;5033053;28;20315;-71
2022/08/22 08:45:41;;;;;;;;;;;20.70;99.90;;;;;;5032975;28;20015;-71
2022/08/22 08:48:06;;;;;;;;;;;20.80;99.90;;;;;;5032442;28;20015;-71
2022/08/22 08:50:55;;;;;;;;;;;20.90;99.90;;;;;;5032336;28;19928;-71
2022/08/22 08:53:23;;;;;;;;;;;20.90;99.90;;;;;;5021159;28;19921;-71
2022/08/22 08:56:02;;;;;;;;;;;21.10;99.90;;;;;;5032438;28;19929;-71
2022/08/22 08:58:31;;;;;;;;;;;21.10;99.90;;;;;;5032434;28;19931;-71
2022/08/22 09:01:05;;;;;;;;;;;21.20;99.90;;;;;;5032468;28;19932;-71
2022/08/22 09:03:34;;;;;;;;;;;21.30;99.90;;;;;;5032656;28;20406;-71
2022/08/22 09:05:59;;;;;;;;;;;21.40;99.90;;;;;;5032362;28;19921;-73
2022/08/22 09:08:45;;;;;;;;;;;21.50;99.90;;;;;;5032355;28;19975;-71
2022/08/22 09:11:10;;;;;;;;;;;21.50;99.90;;;;;;5021708;28;20382;-73
2022/08/22 09:13:45;;;;;;;;;;;21.50;99.90;;;;;;5031834;28;20008;-71
2022/08/22 09:16:34;;;;;;;;;;;21.60;99.90;;;;;;5032091;28;19925;-71
2022/08/22 09:19:29;;;;;;;;;;;21.60;99.90;;;;;;5032388;28;19928;-71
2022/08/22 09:21:58;;;;;;;;;;;21.70;99.90;;;;;;5026341;28;19921;-71
2022/08/22 09:24:23;;;;;;;;;;;21.80;99.90;;;;;;5032202;28;20383;-71
2022/08/22 09:26:54;;;;;;;;;;;21.90;99.90;;;;;;5032071;28;19925;-71
2022/08/22 09:29:37;;;;;;;;;;;22.00;99.90;;;;;;5032698;28;19921;-71
2022/08/22 09:32:22;;;;;;;;;;;22.10;99.90;;;;;;5032106;28;20242;-71
2022/08/22 09:34:50;;;;;;;;;;;22.30;99.90;;;;;;5031449;28;19929;-71
2022/08/22 09:37:19;;;;;;;;;;;22.30;99.90;;;;;;5032140;28;19920;-71
2022/08/22 09:39:48;;;;;;;;;;;22.40;99.90;;;;;;5031887;28;19931;-71
2022/08/22 09:42:19;;;;;;;;;;;22.90;99.90;;;;;;5030923;28;19929;-71
2022/08/22 09:44:44;;;;;;;;;;;23.20;99.90;;;;;;5031344;28;19921;-71
2022/08/22 09:47:21;;;;;;;;;;;23.30;99.90;;;;;;5031484;28;19924;-71
2022/08/22 09:49:54;;;;;;;;;;;23.60;99.90;;;;;;5030771;28;19921;-71
2022/08/22 09:52:26;;;;;;;;;;;23.90;99.90;;;;;;5031830;28;19925;-71
2022/08/22 09:55:01;;;;;;;;;;;24.40;99.00;;;;;;5020170;28;20480;-72
2022/08/22 09:57:26;;;;;;;;;;;24.60;98.00;;;;;;5031133;28;20277;-71
2022/08/22 09:59:52;;;;;;;;;;;25.00;98.20;;;;;;5031332;28;19927;-71
2022/08/22 10:02:23;;;;;;;;;;;25.20;96.80;;;;;;5031261;28;20399;-71
2022/08/22 10:05:12;;;;;;;;;;;25.50;96.70;;;;;;5031445;28;19921;-71
2022/08/22 10:07:40;;;;;;;;;;;26.00;96.80;;;;;;5028091;28;20379;-71
2022/08/22 10:10:24;;;;;;;;;;;26.60;95.90;;;;;;5030961;28;19929;-71
2022/08/22 10:13:03;;;;;;;;;;;27.00;95.00;;;;;;5020677;28;19932;-71
2022/08/22 10:15:34;;;;;;;;;;;27.30;94.40;;;;;;5031027;28;19928;-71
2022/08/22 10:17:59;;;;;;;;;;;27.40;93.80;;;;;;5031067;28;19964;-72
2022/08/22 10:20:48;;;;;;;;;;;27.40;93.10;;;;;;5029411;28;20413;-72
2022/08/22 10:23:22;;;;;;;;;;;27.50;92.60;;;;;;5002068;28;19928;-72
2022/08/22 10:25:51;;;;;;;;;;;27.70;93.40;;;;;;5030914;28;19939;-71
2022/08/22 10:28:36;;;;;;;;;;;28.00;92.70;;;;;;5030981;28;20127;-72
2022/08/22 10:31:18;;;;;;;;;;;28.10;91.00;;;;;;5030826;28;19927;-71
2022/08/22 10:34:06;;;;;;;;;;;28.10;91.30;;;;;;5018795;28;19928;-72
2022/08/22 10:36:36;;;;;;;;;;;28.30;90.50;;;;;;5030658;28;20358;-71
2022/08/22 10:39:04;;;;;;;;;;;28.30;90.90;;;;;;5030871;28;19991;-72
2022/08/22 10:41:32;;;;;;;;;;;28.10;90.90;;;;;;5030116;28;20176;-69
2022/08/22 10:44:01;;;;;;;;;;;28.10;91.20;;;;;;5030528;28;20000;-69
2022/08/22 10:46:40;;;;;;;;;;;28.20;90.00;;;;;;5030799;28;19974;-69
2022/08/22 10:49:24;;;;;;;;;;;28.40;90.70;;;;;;5030519;28;19951;-71
2022/08/22 10:52:02;;;;;;;;;;;28.80;90.10;;;;;;5030521;28;19925;-70
2022/08/22 10:54:27;;;;;;;;;;;29.10;87.20;;;;;;5028993;28;20375;-70
2022/08/22 10:57:11;;;;;;;7.85;1.92;;;29.10;88.70;;;;;;5029893;28;19979;-70
2022/08/22 11:00:02;;;;;;;5.57;1.48;;;29.20;85.30;;;;;;5028110;28;20885;-72
2022/08/22 11:02:39;;;;;;;7.13;1.70;;;29.00;87.80;;;;;;5027983;28;20435;-70
2022/08/22 11:05:17;;;;;;;7.35;1.33;;;29.20;85.70;;;;;;5012004;28;20579;-71
2022/08/22 11:08:03;;;;;;;;;;;29.40;87.50;;;;;;5017412;28;20573;-70
2022/08/22 11:10:31;;;;;;;5.38;1.33;;;29.60;86.10;;;;;;5029914;28;20362;-70
2022/08/22 11:13:27;;;;;;;6.28;1.90;;;29.80;85.40;;;;;;5028617;28;20483;-70
2022/08/22 11:15:59;;;;;;;6.78;1.63;;;30.00;84.30;;;;;;5015317;28;20411;-70
2022/08/22 11:18:32;;;;;;;7.43;1.70;;;30.00;83.30;;;;;;5027140;28;20418;-70
2022/08/22 11:21:09;;;;;;;6.68;1.60;;;29.90;84.80;;;;;;5028191;28;20415;-70
2022/08/22 11:23:35;;;;;;;;;;;30.10;84.50;;;;;;5029514;28;20053;-70
2022/08/22 11:26:19;;;;;;;;;;;30.30;83.00;;;;;;5029948;28;19921;-70
2022/08/22 11:28:55;;;;;;;;;;;30.50;82.30;;;;;;5029628;28;19932;-70
2022/08/22 11:31:26;;;;;;;;;;;30.60;81.60;;;;;;5029880;28;19928;-70
2022/08/22 11:34:09;;;;;;;6.07;1.38;;;30.70;80.70;;;;;;5028709;28;20449;-70
2022/08/22 11:36:38;;;;;;;7.05;1.33;;;30.90;79.20;;;;;;5028117;28;20416;-71
2022/08/22 11:39:29;;;;;;;5.47;1.58;;;30.80;80.00;;;;;;5028086;28;20407;-70
2022/08/22 11:42:04;;;;;;;7.78;1.70;;;30.80;79.90;;;;;;5016175;28;20546;-70
2022/08/22 11:44:35;;;;;;;5.17;1.10;;;31.00;79.60;;;;;;5027021;28;20453;-71
2022/08/22 11:47:06;;;;;;;6.18;1.50;;;31.10;78.20;;;;;;5028000;28;20489;-70
2022/08/22 11:49:49;;;;;;;6.63;1.38;;;31.10;77.40;;;;;;5027668;28;20482;-70
2022/08/22 11:52:39;;;;;;;6.53;1.30;;;30.70;74.90;;;;;;5027730;28;20415;-72
2022/08/22 11:55:26;;;;;;;7.00;1.67;;;30.50;77.40;;;;;;5017908;28;20419;-70
2022/08/22 11:57:57;;;;;;;6.68;1.58;;;30.50;76.70;;;;;;5027417;28;20469;-70
2022/08/22 12:00:48;;;;;;;5.90;1.30;;;30.30;75.90;;;;;;5027628;28;20449;-72
2022/08/22 12:03:33;;;;;;;8.50;1.58;;;30.20;76.50;;;;;;5018105;28;20794;-70
2022/08/22 12:06:06;;;;;;;6.00;1.40;;;30.00;75.90;;;;;;5026707;28;20419;-70
2022/08/22 12:08:34;;;;;;;7.00;1.30;;;30.00;76.60;;;;;;5027687;28;20418;-70
2022/08/22 12:11:24;;;;;;;7.20;1.50;;;29.80;77.00;;;;;;5027161;28;20423;-70
2022/08/22 12:13:53;;;;;;;4.82;1.25;;;29.80;77.00;;;;;;5026599;28;20419;-70
2022/08/22 12:16:26;;;;;;;5.45;1.10;;;29.90;76.00;;;;;;5027198;28;20415;-70
2022/08/22 12:19:18;;;;;;;7.00;1.40;;;30.00;76.20;;;;;;5027429;28;20521;-70
2022/08/22 12:21:47;;;;;;;8.00;1.10;;;30.10;75.40;;;;;;5026785;28;20422;-70
2022/08/22 12:24:40;;;;;;;5.32;1.10;;;30.00;73.30;;;;;;5027453;28;20458;-70
2022/08/22 12:27:48;;;;;;;6.00;1.10;;;29.80;72.50;;;;;;5026697;28;20925;-70
2022/08/22 12:30:26;;;;;;;5.43;1.30;;;29.60;74.00;;;;;;5027231;28;20411;-70
2022/08/22 12:33:23;;;;;;;6.30;1.27;;;29.90;74.00;;;;;;5027046;28;20425;-70
2022/08/22 12:36:03;;;;;;;;;;;30.20;73.70;;;;;;5020573;28;20053;-70
2022/08/22 12:38:38;;;;;;;;;;;30.40;70.40;;;;;;5028329;28;19928;-70
2022/08/22 12:41:14;;;;;;;;;;;30.30;68.90;;;;;;5028928;28;19921;-70
2022/08/22 12:43:45;;;;;;;;;;;30.20;68.80;;;;;;5028936;28;19921;-70
2022/08/22 12:46:11;;;;;;;;;;;30.10;66.30;;;;;;5028352;28;19925;-70
2022/08/22 12:48:42;;;;;;;;;;;30.00;65.40;;;;;;5028604;28;19928;-72
2022/08/22 12:51:27;;;;;;;;;;;29.90;67.50;;;;;;5028650;28;19928;-70
2022/08/22 12:54:07;;;;;;;;;;;30.00;65.00;;;;;;5028518;28;19921;-70
2022/08/22 12:56:53;;;;;;;;;;;29.90;67.40;;;;;;5017648;28;19968;-70
2022/08/22 12:59:33;;;;;;;;;;;30.00;67.20;;;;;;5028581;28;20249;-70
2022/08/22 13:02:00;;;;;;;;;;;30.10;67.00;;;;;;5027434;28;19921;-70
2022/08/22 13:04:28;;;;;;;;;;;30.60;67.30;;;;;;5029032;28;19920;-70
2022/08/22 13:06:58;;;;;;;;;;;30.70;65.00;;;;;;5027298;28;19935;-70
2022/08/22 13:09:29;;;;;;;;;;;31.00;63.80;;;;;;5029040;28;20016;-70
2022/08/22 13:11:59;;;;;;;;;;;31.70;64.40;;;;;;5028226;28;19925;-72
2022/08/22 13:14:25;;;;;;;;;;;32.30;63.00;;;;;;5028260;28;19928;-71
2022/08/22 13:16:53;;;;;;;;;;;32.80;64.00;;;;;;5028218;28;19921;-70
2022/08/22 13:19:21;;;;;;;;;;;33.00;60.00;;;;;;5032384;28;19920;-70
2022/08/22 13:22:02;;;;;;;;;;;32.80;61.60;;;;;;5031620;28;19921;-70
2022/08/22 13:24:34;;;;;;;;;;;32.60;61.70;;;;;;5032311;28;19944;-70
2022/08/22 13:27:03;;;;;;;;;;;32.40;61.00;;;;;;5031584;28;20415;-70
2022/08/22 13:29:54;;;;;;;7.43;0.85;;;32.30;60.90;;;;;;5031891;28;19921;-70
2022/08/22 13:32:28;;;;;;;;;;;32.00;60.60;;;;;;5021595;28;20053;-70
2022/08/22 13:34:55;;;;;;;;;;;31.70;61.70;;;;;;5032037;28;19974;-70
2022/08/22 13:37:27;;;;;;;4.10;0.60;;;31.60;61.80;;;;;;5031207;28;20284;-70
2022/08/22 13:39:59;;;;;;;4.80;0.90;;;31.80;63.00;;;;;;5029855;28;20403;-70
2022/08/22 13:42:28;;;;;;;5.50;0.93;;;31.70;62.80;;;;;;5030207;28;20492;-70
2022/08/22 13:44:56;;;;;;;3.85;0.80;;;31.70;62.70;;;;;;5031141;28;20199;-70
2022/08/22 13:47:23;;;;;;;;;;;31.70;63.00;;;;;;5030530;28;20041;-70
2022/08/22 13:49:51;;;;;;;;;;;31.30;62.60;;;;;;5031003;28;19925;-70
2022/08/22 13:52:36;;;;;;;;;;;31.30;63.40;;;;;;5031609;28;19921;-72
2022/08/22 13:55:12;;;;;;;5.38;1.20;;;31.40;63.20;;;;;;5021312;28;20008;-70
2022/08/22 13:58:01;;;;;;;4.35;1.00;;;31.80;62.60;;;;;;5031022;28;20529;-70
2022/08/22 14:01:00;;;;;;;3.30;0.80;;;32.20;63.10;;;;;;5030784;28;20424;-70
2022/08/22 14:03:41;;;;;;;;;;;33.00;62.10;;;;;;5031733;28;20583;-70
2022/08/22 14:06:10;;;;;;;;;;;33.40;61.10;;;;;;5019794;28;19921;-70
2022/08/22 14:08:39;;;;;;;;;;;33.30;60.10;;;;;;5030705;28;19927;-70
2022/08/22 14:11:17;;;;;;;;;;;33.00;60.20;;;;;;5030843;28;19944;-70
2022/08/22 14:13:45;;;;;;;;;;;32.50;60.70;;;;;;5030082;28;19929;-70
2022/08/22 14:16:18;;;;;;;;;;;32.50;60.00;;;;;;5030435;28;20041;-70
2022/08/22 14:18:55;;;;;;;16.42;1.70;;;32.70;60.40;;;;;;5030340;28;19921;-70
2022/08/22 14:21:39;;;;;;;;;;;33.20;60.30;;;;;;5030852;28;20175;-70
2022/08/22 14:24:09;;;;;;;;;;;33.70;58.10;;;;;;5030486;28;19921;-70
2022/08/22 14:26:36;;;;;;;;;;;33.90;58.40;;;;;;5030931;28;20418;-70
2022/08/22 14:29:04;;;;;;;;;;;33.80;56.60;;;;;;5030416;28;20004;-70
2022/08/22 14:31:29;;;;;;;;;;;33.60;57.80;;;;;;5031046;28;19932;-70
2022/08/22 14:33:57;;;;;;;;;;;33.70;58.10;;;;;;5030483;28;19924;-70
2022/08/22 14:36:33;;;;;;;5.53;0.75;;;33.80;57.30;;;;;;5029716;28;20004;-71
2022/08/22 14:39:10;;;;;;;;;;;34.00;58.10;;;;;;5030773;28;20175;-70
2022/08/22 14:41:50;;;;;;;;;;;34.00;57.20;;;;;;5030857;28;20056;-71
2022/08/22 14:44:21;;;;;;;;;;;33.60;58.20;;;;;;5030084;28;19921;-70
2022/08/22 14:46:55;;;;;;;;;;;32.80;57.50;;;;;;5030282;28;20371;-70